Time;durP1;ratioP1;P1;durP2;ratioP2;P2;SDS_P1;SDS_P2;PMS_P1;PMS_P2;Temp;Humidity;BMP_temperature;BMP_pressure;BME280_temperature;BME280_humidity;BME280_pressure;Samples;Min_cycle;Max_cycle;Signal;HPM_P1;HPM_P2
2023/12/15 00:02:20;;;;;;;25.17;15.27;;;7.20;99.90;;;;;;5044725;28;20708;-59
2023/12/15 00:04:48;;;;;;;23.10;14.33;;;7.10;99.90;;;;;;5037923;28;20189;-59
2023/12/15 00:07:17;;;;;;;21.87;14.80;;;7.20;99.90;;;;;;5035854;28;20641;-59
2023/12/15 00:09:45;;;;;;;28.03;15.20;;;7.20;99.90;;;;;;5042021;28;20217;-59
2023/12/15 00:12:13;;;;;;;25.90;14.53;;;7.20;99.90;;;;;;5042764;28;20217;-59
2023/12/15 00:14:43;;;;;;;28.00;14.20;;;7.20;99.90;;;;;;5042679;28;20213;-59
2023/12/15 00:17:11;;;;;;;27.63;14.00;;;7.20;99.90;;;;;;5046211;28;20651;-59
2023/12/15 00:19:39;;;;;;;28.53;15.07;;;7.20;99.90;;;;;;5047697;28;20224;-59
2023/12/15 00:22:09;;;;;;;27.03;13.67;;;7.20;99.90;;;;;;5041751;28;20225;-59
2023/12/15 00:24:38;;;;;;;23.40;13.40;;;7.20;99.90;;;;;;5047191;28;20220;-59
2023/12/15 00:27:06;;;;;;;26.63;14.47;;;7.20;99.90;;;;;;5046364;28;20224;-59
2023/12/15 00:29:34;;;;;;;23.13;13.47;;;7.30;99.90;;;;;;5044426;28;20678;-59
2023/12/15 00:32:05;;;;;;;29.37;13.63;;;7.20;99.90;;;;;;5047712;28;20202;-59
2023/12/15 00:34:33;;;;;;;23.60;13.20;;;7.20;99.90;;;;;;5041947;28;20631;-59
2023/12/15 00:37:01;;;;;;;26.70;13.07;;;7.20;99.90;;;;;;5048576;28;20612;-59
2023/12/15 00:39:30;;;;;;;20.80;12.47;;;7.20;99.90;;;;;;5043820;28;20220;-59
2023/12/15 00:41:58;;;;;;;20.90;12.03;;;7.20;99.90;;;;;;5047722;28;20225;-59
2023/12/15 00:44:26;;;;;;;23.87;13.20;;;7.20;99.90;;;;;;5052447;28;20216;-59
2023/12/15 00:46:54;;;;;;;21.97;12.60;;;7.30;99.90;;;;;;5068924;28;20196;-59
2023/12/15 00:49:25;;;;;;;23.80;13.03;;;7.20;99.90;;;;;;5060967;28;20204;-59
2023/12/15 00:51:57;;;;;;;23.13;12.10;;;7.20;99.90;;;;;;5062609;28;20222;-60
2023/12/15 00:54:26;;;;;;;30.23;12.77;;;7.20;99.90;;;;;;5070857;28;20234;-59
2023/12/15 00:56:55;;;;;;;19.07;12.33;;;7.20;99.90;;;;;;5065877;28;20212;-59
2023/12/15 00:59:23;;;;;;;22.60;12.40;;;7.20;99.90;;;;;;5063508;28;20706;-59
2023/12/15 01:01:51;;;;;;;21.63;12.70;;;7.20;99.90;;;;;;5065333;28;20196;-59
2023/12/15 01:04:19;;;;;;;28.87;12.30;;;7.20;99.90;;;;;;5062117;28;20240;-59
2023/12/15 01:06:49;;;;;;;24.10;13.20;;;7.20;99.90;;;;;;5062364;28;20217;-58
2023/12/15 01:09:17;;;;;;;27.87;13.70;;;7.30;99.90;;;;;;5063950;28;20586;-59
2023/12/15 01:11:45;;;;;;;30.20;13.27;;;7.30;99.90;;;;;;5063249;28;20890;-59
2023/12/15 01:14:14;;;;;;;26.43;13.63;;;7.30;99.90;;;;;;5065935;28;20231;-59
2023/12/15 01:16:46;;;;;;;30.57;14.37;;;7.30;99.90;;;;;;5064929;28;20578;-59
2023/12/15 01:19:15;;;;;;;30.80;15.20;;;7.30;99.90;;;;;;5063425;28;20223;-59
2023/12/15 01:21:44;;;;;;;33.00;15.80;;;7.30;99.90;;;;;;5070735;28;20223;-60
2023/12/15 01:24:14;;;;;;;33.07;15.47;;;7.30;99.90;;;;;;5066864;28;20224;-59
2023/12/15 01:26:42;;;;;;;31.37;15.80;;;7.30;99.90;;;;;;5068073;28;20263;-59
2023/12/15 01:29:10;;;;;;;27.40;15.47;;;7.30;99.90;;;;;;5067028;28;20201;-60
2023/12/15 01:31:38;;;;;;;30.20;15.83;;;7.30;99.90;;;;;;5068137;28;20197;-59
2023/12/15 01:34:06;;;;;;;36.37;16.50;;;7.30;99.90;;;;;;5065868;28;20230;-59
2023/12/15 01:36:37;;;;;;;30.80;15.93;;;7.30;99.90;;;;;;5067729;28;20315;-59
2023/12/15 01:39:05;;;;;;;29.23;15.87;;;7.30;99.90;;;;;;5067266;28;20321;-59
2023/12/15 01:41:34;;;;;;;32.57;16.33;;;7.30;99.90;;;;;;5067578;28;20228;-60
2023/12/15 01:44:02;;;;;;;32.73;16.87;;;7.30;99.90;;;;;;5062601;28;20286;-59
2023/12/15 01:46:31;;;;;;;36.93;17.60;;;7.30;99.90;;;;;;5068506;28;20634;-59
2023/12/15 01:48:59;;;;;;;38.33;17.43;;;7.30;99.90;;;;;;5063499;28;20232;-59
2023/12/15 01:51:28;;;;;;;35.27;17.50;;;7.30;99.90;;;;;;5059561;28;20315;-59
2023/12/15 01:53:56;;;;;;;36.03;17.43;;;7.30;99.90;;;;;;5057662;28;20223;-58
2023/12/15 01:56:24;;;;;;;42.47;18.67;;;7.30;99.90;;;;;;5064408;28;20224;-59
2023/12/15 01:58:54;;;;;;;36.07;18.83;;;7.30;99.90;;;;;;5067595;28;20285;-59
2023/12/15 02:01:22;;;;;;;40.70;19.43;;;7.30;99.90;;;;;;5068082;28;20208;-58
2023/12/15 02:03:50;;;;;;;37.93;18.30;;;7.30;99.90;;;;;;5064664;28;20579;-59
2023/12/15 02:06:20;;;;;;;39.80;18.73;;;7.30;99.90;;;;;;5068188;28;20300;-58
2023/12/15 02:08:48;;;;;;;40.67;19.80;;;7.30;99.90;;;;;;5064761;28;20248;-59
2023/12/15 02:11:16;;;;;;;38.47;19.43;;;7.30;99.90;;;;;;5068033;28;20232;-59
2023/12/15 02:13:45;;;;;;;43.17;19.00;;;7.30;99.90;;;;;;5060394;28;20189;-59
2023/12/15 02:16:14;;;;;;;47.83;20.77;;;7.40;99.90;;;;;;5066956;28;20720;-59
2023/12/15 02:18:43;;;;;;;44.83;19.30;;;7.40;99.90;;;;;;5067241;28;20220;-59
2023/12/15 02:21:11;;;;;;;38.77;20.00;;;7.30;99.90;;;;;;5064498;28;20316;-59
2023/12/15 02:23:43;;;;;;;41.40;21.47;;;7.30;99.90;;;;;;5065300;28;20239;-59
2023/12/15 02:26:11;;;;;;;41.37;19.90;;;7.30;99.90;;;;;;5066536;28;20624;-59
2023/12/15 02:28:40;;;;;;;46.00;21.43;;;7.40;99.90;;;;;;5062003;28;20542;-59
2023/12/15 02:31:08;;;;;;;39.30;20.57;;;7.40;99.90;;;;;;5065651;28;20220;-59
2023/12/15 02:33:36;;;;;;;46.50;20.60;;;7.40;99.90;;;;;;5062943;28;20224;-59
2023/12/15 02:36:05;;;;;;;45.83;21.17;;;7.40;99.90;;;;;;5065254;28;20301;-59
2023/12/15 02:38:33;;;;;;;44.40;22.23;;;7.40;99.90;;;;;;5063638;28;20556;-58
2023/12/15 02:41:03;;;;;;;42.57;21.07;;;7.40;99.90;;;;;;5063623;28;20566;-59
2023/12/15 02:43:31;;;;;;;47.37;21.97;;;7.40;99.90;;;;;;5067568;28;20595;-59
2023/12/15 02:45:59;;;;;;;41.70;21.23;;;7.40;99.90;;;;;;5066042;28;20217;-59
2023/12/15 02:48:27;;;;;;;47.47;21.47;;;7.40;99.90;;;;;;5066157;28;20222;-59
2023/12/15 02:50:56;;;;;;;51.53;21.77;;;7.40;99.90;;;;;;5065353;28;20220;-59
2023/12/15 02:53:24;;;;;;;47.83;22.63;;;7.40;99.90;;;;;;5068002;28;20258;-58
2023/12/15 02:55:52;;;;;;;44.23;21.93;;;7.40;99.90;;;;;;5061765;28;20200;-59
2023/12/15 02:58:22;;;;;;;46.80;21.63;;;7.40;99.90;;;;;;5062086;28;20290;-59
2023/12/15 03:00:52;;;;;;;46.80;21.63;;;7.40;99.90;;;;;;5059409;28;20223;-58
2023/12/15 03:03:21;;;;;;;55.73;23.63;;;7.50;99.90;;;;;;5062420;28;20285;-58
2023/12/15 03:05:49;;;;;;;47.57;22.67;;;7.50;99.90;;;;;;5060145;28;20212;-59
2023/12/15 03:08:17;;;;;;;56.23;23.17;;;7.60;99.90;;;;;;5064325;28;20563;-59
2023/12/15 03:10:46;;;;;;;50.53;23.50;;;7.60;99.90;;;;;;5063229;28;20592;-59
2023/12/15 03:13:14;;;;;;;54.23;22.97;;;7.60;99.90;;;;;;5063639;28;20216;-58
2023/12/15 03:15:43;;;;;;;64.27;23.33;;;7.60;99.90;;;;;;5059802;28;20228;-58
2023/12/15 03:18:12;;;;;;;50.70;23.10;;;7.60;99.90;;;;;;5062592;28;20232;-59
2023/12/15 03:20:40;;;;;;;54.93;23.23;;;7.60;99.90;;;;;;5061431;28;20254;-59
2023/12/15 03:23:09;;;;;;;59.50;24.40;;;7.60;99.90;;;;;;5059675;28;20189;-58
2023/12/15 03:25:37;;;;;;;55.33;23.53;;;7.60;99.90;;;;;;5061957;28;20199;-60
2023/12/15 03:28:05;;;;;;;59.83;24.33;;;7.60;99.90;;;;;;5062922;28;20221;-59
2023/12/15 03:30:33;;;;;;;61.07;24.87;;;7.60;99.90;;;;;;5065611;28;20218;-59
2023/12/15 03:33:03;;;;;;;63.83;23.53;;;7.70;99.90;;;;;;5063904;28;20625;-59
2023/12/15 03:35:32;;;;;;;63.53;25.17;;;7.70;99.90;;;;;;5062435;28;20587;-59
2023/12/15 03:38:00;;;;;;;57.63;24.93;;;7.70;99.90;;;;;;5061016;28;20193;-60
2023/12/15 03:40:28;;;;;;;58.60;24.93;;;7.70;99.90;;;;;;5065285;28;20197;-59
2023/12/15 03:42:56;;;;;;;64.53;25.70;;;7.70;99.90;;;;;;5064065;28;20228;-59
2023/12/15 03:45:25;;;;;;;64.27;24.30;;;7.70;99.90;;;;;;5060876;28;20220;-59
2023/12/15 03:47:53;;;;;;;65.47;25.33;;;7.70;99.90;;;;;;5065207;28;20211;-59
2023/12/15 03:50:23;;;;;;;68.50;26.83;;;7.80;99.90;;;;;;5064406;28;20251;-59
2023/12/15 03:52:51;;;;;;;67.23;25.23;;;7.70;99.90;;;;;;5063070;28;20232;-59
2023/12/15 03:55:20;;;;;;;68.83;26.90;;;7.70;99.90;;;;;;5061786;28;20675;-59
2023/12/15 03:57:48;;;;;;;59.23;24.90;;;7.70;99.90;;;;;;5065872;28;20213;-60
2023/12/15 04:00:20;;;;;;;66.77;25.77;;;7.70;99.90;;;;;;5062149;28;20228;-59
2023/12/15 04:02:48;;;;;;;69.77;26.50;;;7.70;99.90;;;;;;5067166;28;20223;-60
2023/12/15 04:05:17;;;;;;;64.80;25.67;;;7.70;99.90;;;;;;5065766;28;20677;-58
2023/12/15 04:07:47;;;;;;;67.90;25.93;;;7.70;99.90;;;;;;5063561;28;20229;-59
2023/12/15 04:10:15;;;;;;;63.23;26.87;;;7.70;99.90;;;;;;5058345;28;20227;-59
2023/12/15 04:12:43;;;;;;;67.53;28.17;;;7.70;99.90;;;;;;5064038;28;20589;-59
2023/12/15 04:15:11;;;;;;;69.90;27.80;;;7.70;99.90;;;;;;5066801;28;20219;-59
2023/12/15 04:17:39;;;;;;;68.03;27.73;;;7.70;99.90;;;;;;5066172;28;20224;-59
2023/12/15 04:20:09;;;;;;;69.33;26.70;;;7.70;99.90;;;;;;5065483;28;20275;-59
2023/12/15 04:22:37;;;;;;;74.83;29.30;;;7.70;99.90;;;;;;5059366;28;20187;-59
2023/12/15 04:25:07;;;;;;;66.23;27.43;;;7.70;99.90;;;;;;5062737;28;20217;-59
2023/12/15 04:27:36;;;;;;;70.83;27.53;;;7.70;99.90;;;;;;5065341;28;20227;-60
2023/12/15 04:30:08;;;;;;;75.67;27.50;;;7.70;99.90;;;;;;5059553;28;20225;-59
2023/12/15 04:32:36;;;;;;;65.37;28.10;;;7.70;99.90;;;;;;5066845;28;20321;-59
2023/12/15 04:35:06;;;;;;;74.33;28.87;;;7.70;99.90;;;;;;5062139;28;20242;-59
2023/12/15 04:37:34;;;;;;;64.33;28.57;;;7.80;99.90;;;;;;5056694;28;20196;-59
2023/12/15 04:40:03;;;;;;;70.47;28.17;;;7.70;99.90;;;;;;5058787;28;20232;-59
2023/12/15 04:42:33;;;;;;;72.40;29.60;;;7.70;99.90;;;;;;5063451;28;20307;-59
2023/12/15 04:45:01;;;;;;;68.57;28.33;;;7.70;99.90;;;;;;5066418;28;20232;-59
2023/12/15 04:47:29;;;;;;;70.70;28.57;;;7.70;99.90;;;;;;5056346;28;20311;-59
2023/12/15 04:49:58;;;;;;;71.03;28.67;;;7.70;99.90;;;;;;5061860;28;20193;-59
2023/12/15 04:52:26;;;;;;;64.83;27.80;;;7.70;99.90;;;;;;5062714;28;20220;-59
2023/12/15 04:54:54;;;;;;;67.97;29.13;;;7.70;99.90;;;;;;5064878;28;20219;-60
2023/12/15 04:57:22;;;;;;;61.30;26.43;;;7.70;99.90;;;;;;5062469;28;20217;-59
2023/12/15 04:59:52;;;;;;;68.23;27.13;;;7.60;99.90;;;;;;5063295;28;20219;-59
2023/12/15 05:02:21;;;;;;;67.93;27.07;;;7.60;99.90;;;;;;5061274;28;20694;-59
2023/12/15 05:04:49;;;;;;;72.40;27.63;;;7.60;99.90;;;;;;5067396;28;20573;-59
2023/12/15 05:07:17;;;;;;;60.43;26.33;;;7.60;99.90;;;;;;5064408;28;20215;-59
2023/12/15 05:09:47;;;;;;;59.30;26.80;;;7.60;99.90;;;;;;5066365;28;20220;-59
2023/12/15 05:12:16;;;;;;;61.53;26.77;;;7.60;99.90;;;;;;5065706;28;20220;-60
2023/12/15 05:14:44;;;;;;;66.37;26.37;;;7.60;99.90;;;;;;5066482;28;20606;-59
2023/12/15 05:17:14;;;;;;;68.87;26.00;;;7.60;99.90;;;;;;5067599;28;20231;-59
2023/12/15 05:19:42;;;;;;;65.63;26.93;;;7.60;99.90;;;;;;5066866;28;20692;-59
2023/12/15 05:22:10;;;;;;;62.27;25.70;;;7.60;99.90;;;;;;5063313;28;20218;-60
2023/12/15 05:24:39;;;;;;;67.80;27.53;;;7.60;99.90;;;;;;5063443;28;20219;-59
2023/12/15 05:27:08;;;;;;;61.63;25.43;;;7.60;99.90;;;;;;5066284;28;20927;-59
2023/12/15 05:29:42;;;;;;;62.97;26.07;;;7.60;99.90;;;;;;5065729;28;20239;-59
2023/12/15 05:32:11;;;;;;;69.13;25.20;;;7.60;99.90;;;;;;5067200;28;20609;-59
2023/12/15 05:34:41;;;;;;;56.83;24.73;;;7.60;99.90;;;;;;5062686;28;20216;-59
2023/12/15 05:37:10;;;;;;;62.83;25.03;;;7.60;99.90;;;;;;5065752;28;20220;-59
2023/12/15 05:39:38;;;;;;;69.90;25.13;;;7.60;99.90;;;;;;5065852;28;20216;-59
2023/12/15 05:42:07;;;;;;;56.40;24.73;;;7.60;99.90;;;;;;5064669;28;20223;-59
2023/12/15 05:44:39;;;;;;;57.93;24.20;;;7.60;99.90;;;;;;5065425;28;20220;-59
2023/12/15 05:47:08;;;;;;;55.47;23.70;;;7.60;99.90;;;;;;5064714;28;20188;-59
2023/12/15 05:49:41;;;;;;;55.17;24.00;;;7.60;99.90;;;;;;5067711;28;20216;-59
2023/12/15 05:52:10;;;;;;;54.90;23.53;;;7.60;99.90;;;;;;5068598;28;20269;-60
2023/12/15 05:54:40;;;;;;;55.73;23.23;;;7.60;99.90;;;;;;5060011;28;20220;-59
2023/12/15 05:57:08;;;;;;;57.73;22.80;;;7.60;99.90;;;;;;5061736;28;20243;-59
2023/12/15 05:59:41;;;;;;;57.73;23.37;;;7.60;99.90;;;;;;5062549;28;20750;-59
2023/12/15 06:02:10;;;;;;;53.60;22.83;;;7.60;99.90;;;;;;5062084;28;21565;-59
2023/12/15 06:04:39;;;;;;;46.43;21.00;;;7.50;99.90;;;;;;5043671;28;20250;-58
2023/12/15 06:07:09;;;;;;;51.13;23.07;;;7.60;99.90;;;;;;5057688;28;20219;-58
2023/12/15 06:09:37;;;;;;;45.70;21.47;;;7.60;99.90;;;;;;5061502;28;20228;-59
2023/12/15 06:12:07;;;;;;;45.87;20.17;;;7.60;99.90;;;;;;5055008;28;20297;-58
2023/12/15 06:14:37;;;;;;;49.27;20.10;;;7.60;99.90;;;;;;5042325;28;20217;-58
2023/12/15 06:17:07;;;;;;;40.43;19.10;;;7.60;99.90;;;;;;5044390;28;20702;-59
2023/12/15 06:19:39;;;;;;;40.40;18.00;;;7.60;99.90;;;;;;5046183;28;20600;-58
2023/12/15 06:22:11;;;;;;;40.93;18.10;;;7.60;99.90;;;;;;5046644;28;20634;-59
2023/12/15 06:24:41;;;;;;;45.03;18.27;;;7.60;99.90;;;;;;5042080;28;20843;-59
2023/12/15 06:27:09;;;;;;;39.20;16.37;;;7.60;99.90;;;;;;5042556;28;20228;-59
2023/12/15 06:29:39;;;;;;;39.57;17.13;;;7.60;99.90;;;;;;5045395;28;20204;-60
2023/12/15 06:32:10;;;;;;;36.20;17.80;;;7.60;99.90;;;;;;5046150;28;20263;-59
2023/12/15 06:34:42;;;;;;;39.70;17.33;;;7.60;99.90;;;;;;5044174;28;20287;-59
2023/12/15 06:37:11;;;;;;;37.47;16.80;;;7.60;99.90;;;;;;5047236;28;20304;-59
2023/12/15 06:39:40;;;;;;;38.53;16.10;;;7.60;99.90;;;;;;5043509;28;20678;-59
2023/12/15 06:42:08;;;;;;;45.23;16.83;;;7.60;99.90;;;;;;5048094;28;20228;-59
2023/12/15 06:44:37;;;;;;;34.77;14.30;;;7.60;99.90;;;;;;5047954;28;20208;-59
2023/12/15 06:47:06;;;;;;;36.87;14.80;;;7.60;99.90;;;;;;5062165;28;20200;-59
2023/12/15 06:49:34;;;;;;;30.73;14.17;;;7.60;99.90;;;;;;5064347;28;20212;-59
2023/12/15 06:52:02;;;;;;;34.50;13.60;;;7.70;99.90;;;;;;5064465;28;20219;-58
2023/12/15 06:54:32;;;;;;;27.87;12.83;;;7.60;99.90;;;;;;5060794;28;20223;-59
2023/12/15 06:57:00;;;;;;;26.03;12.47;;;7.60;99.90;;;;;;5060477;28;20215;-59
2023/12/15 06:59:28;;;;;;;28.20;12.83;;;7.60;99.90;;;;;;5063400;28;20286;-59
2023/12/15 07:01:57;;;;;;;29.63;12.77;;;7.60;99.90;;;;;;5064069;28;20287;-59
2023/12/15 07:04:25;;;;;;;25.43;11.67;;;7.50;99.90;;;;;;5042945;28;20203;-59
2023/12/15 07:06:53;;;;;;;29.37;12.37;;;7.50;99.90;;;;;;5040689;28;20244;-59
2023/12/15 07:09:22;;;;;;;27.10;11.70;;;7.50;99.90;;;;;;5038818;28;20654;-59
2023/12/15 07:11:51;;;;;;;27.10;10.37;;;7.50;99.90;;;;;;5051291;28;20227;-59
2023/12/15 07:14:19;;;;;;;24.07;10.63;;;7.50;99.90;;;;;;5062100;28;20224;-59
2023/12/15 07:16:47;;;;;;;24.07;10.20;;;7.50;99.90;;;;;;5064372;28;20197;-59
2023/12/15 07:19:17;;;;;;;18.93;9.20;;;7.50;99.90;;;;;;5063423;28;20232;-60
2023/12/15 07:21:45;;;;;;;26.87;10.00;;;7.50;99.90;;;;;;5047402;28;20657;-59
2023/12/15 07:24:13;;;;;;;21.43;9.43;;;7.60;99.90;;;;;;5044183;28;20231;-59
2023/12/15 07:26:41;;;;;;;22.07;9.37;;;7.60;99.90;;;;;;5038685;28;20567;-59
2023/12/15 07:29:11;;;;;;;27.20;9.10;;;7.60;99.90;;;;;;5038064;28;20201;-59
2023/12/15 07:31:39;;;;;;;18.80;8.50;;;7.60;99.90;;;;;;5039445;28;20243;-59
2023/12/15 07:34:08;;;;;;;23.80;8.47;;;7.60;99.90;;;;;;5039793;28;20224;-59
2023/12/15 07:36:36;;;;;;;16.10;7.93;;;7.70;99.90;;;;;;5042237;28;22720;-59
2023/12/15 07:39:05;;;;;;;18.40;8.20;;;7.70;99.90;;;;;;5045246;28;20217;-60
2023/12/15 07:41:33;;;;;;;22.07;9.03;;;7.70;99.90;;;;;;5044100;28;20235;-59
2023/12/15 07:44:01;;;;;;;16.70;7.93;;;7.70;99.90;;;;;;5042071;28;20197;-58
2023/12/15 07:46:31;;;;;;;23.90;8.07;;;7.70;99.90;;;;;;5037590;28;20644;-59
2023/12/15 07:48:59;;;;;;;17.10;7.47;;;7.80;99.90;;;;;;5039117;28;20235;-59
2023/12/15 07:51:27;;;;;;;19.83;7.20;;;7.80;99.90;;;;;;5038983;28;20733;-59
2023/12/15 07:53:55;;;;;;;16.50;7.60;;;7.80;99.90;;;;;;5046023;28;20234;-59
2023/12/15 07:56:25;;;;;;;18.00;7.03;;;7.80;99.90;;;;;;5061680;28;20242;-60
2023/12/15 07:58:55;;;;;;;14.77;6.90;;;7.90;99.90;;;;;;5037521;28;20228;-58
2023/12/15 08:01:25;;;;;;;18.80;8.60;;;7.90;99.90;;;;;;5059733;28;20203;-58
2023/12/15 08:03:55;;;;;;;17.40;8.07;;;7.90;99.90;;;;;;5057083;28;20211;-58
2023/12/15 08:06:23;;;;;;;18.47;6.80;;;7.90;99.90;;;;;;5062556;28;20216;-58
2023/12/15 08:08:52;;;;;;;15.00;7.30;;;7.90;99.90;;;;;;5057449;28;20300;-59
2023/12/15 08:11:22;;;;;;;21.70;7.47;;;7.90;99.90;;;;;;5057852;28;20228;-59
2023/12/15 08:13:51;;;;;;;17.53;7.17;;;7.90;99.90;;;;;;5042201;28;20670;-58
2023/12/15 08:16:19;;;;;;;23.40;7.47;;;7.90;99.90;;;;;;5045845;28;20682;-59
2023/12/15 08:18:47;;;;;;;16.57;6.87;;;7.90;99.90;;;;;;5043950;28;20237;-59
2023/12/15 08:21:17;;;;;;;20.50;6.97;;;7.90;99.90;;;;;;5041616;28;20213;-59
2023/12/15 08:23:45;;;;;;;22.07;7.37;;;7.90;99.90;;;;;;5040658;28;20223;-58
2023/12/15 08:26:20;;;;;;;20.97;7.37;;;7.90;99.90;;;;;;5041111;28;20235;-59
2023/12/15 08:28:48;;;;;;;17.37;7.20;;;7.90;99.90;;;;;;5045353;28;20191;-59
2023/12/15 08:31:17;;;;;;;15.20;7.43;;;7.90;99.90;;;;;;5043718;28;21130;-59
2023/12/15 08:33:45;;;;;;;15.43;7.43;;;7.90;99.90;;;;;;5049216;28;20217;-59
2023/12/15 08:36:14;;;;;;;14.67;7.00;;;8.00;99.90;;;;;;5035656;28;20217;-59
2023/12/15 08:38:43;;;;;;;20.97;8.00;;;7.90;99.90;;;;;;5042014;28;20618;-59
2023/12/15 08:41:12;;;;;;;20.53;8.40;;;7.90;99.90;;;;;;5042093;28;20759;-59
2023/12/15 08:43:42;;;;;;;16.80;7.17;;;8.00;99.90;;;;;;5044743;28;20184;-58
2023/12/15 08:46:10;;;;;;;21.40;7.40;;;8.00;99.90;;;;;;5040530;28;20240;-59
2023/12/15 08:48:38;;;;;;;20.77;6.80;;;8.00;99.90;;;;;;5044127;28;20208;-59
2023/12/15 08:51:07;;;;;;;20.87;7.30;;;8.10;99.90;;;;;;5047833;28;20220;-59
2023/12/15 08:53:35;;;;;;;12.90;6.20;;;8.20;99.90;;;;;;5056127;28;20220;-59
2023/12/15 08:56:05;;;;;;;15.37;6.37;;;8.20;99.90;;;;;;5066601;28;20206;-59
2023/12/15 08:58:33;;;;;;;22.40;7.47;;;8.20;99.90;;;;;;5042066;28;20648;-63
2023/12/15 09:01:01;;;;;;;30.97;6.73;;;8.30;99.90;;;;;;5035494;28;20719;-64
2023/12/15 09:03:30;;;;;;;12.40;6.00;;;8.30;99.90;;;;;;5049359;28;20217;-63
2023/12/15 09:05:58;;;;;;;17.57;6.40;;;8.40;99.90;;;;;;5049479;28;20224;-63
2023/12/15 09:08:47;;;;;;;16.47;6.67;;;8.40;99.90;;;;;;5050747;28;20281;-62
2023/12/15 09:11:17;;;;;;;18.37;6.00;;;8.50;99.90;;;;;;5042240;28;20240;-62
2023/12/15 09:13:45;;;;;;;20.07;7.00;;;8.50;99.90;;;;;;5041176;28;20266;-62
2023/12/15 09:16:13;;;;;;;16.50;6.57;;;8.50;99.90;;;;;;5040206;28;20702;-63
2023/12/15 09:18:41;;;;;;;20.33;6.33;;;8.50;99.90;;;;;;5045111;28;20212;-63
2023/12/15 09:21:10;;;;;;;14.60;6.53;;;8.60;99.90;;;;;;5046329;28;20266;-63
2023/12/15 09:23:38;;;;;;;19.30;6.67;;;8.60;99.90;;;;;;5036016;28;21006;-63
2023/12/15 09:26:07;;;;;;;20.87;7.90;;;8.60;99.90;;;;;;5040837;28;20251;-63
2023/12/15 09:28:36;;;;;;;20.00;8.83;;;8.60;99.90;;;;;;5045189;28;20197;-63
2023/12/15 09:31:05;;;;;;;20.80;9.70;;;8.70;99.90;;;;;;5055731;28;20227;-63
2023/12/15 09:33:33;;;;;;;25.00;10.37;;;8.80;99.90;;;;;;5047990;28;20216;-63
2023/12/15 09:36:01;;;;;;;19.37;8.73;;;8.80;99.90;;;;;;5036858;28;20338;-63
2023/12/15 09:38:30;;;;;;;20.37;7.23;;;8.90;99.90;;;;;;5045406;28;20240;-63
2023/12/15 09:40:58;;;;;;;15.37;6.37;;;9.00;99.90;;;;;;5042693;28;20201;-63
2023/12/15 09:43:26;;;;;;;16.30;5.77;;;9.10;99.90;;;;;;5043409;28;20284;-63
2023/12/15 09:45:59;;;;;;;11.97;5.63;;;9.10;99.90;;;;;;5040629;28;20227;-63
2023/12/15 09:48:29;;;;;;;11.50;5.60;;;9.20;99.90;;;;;;5051107;28;20239;-63
2023/12/15 09:51:02;;;;;;;19.77;5.73;;;9.30;99.90;;;;;;5061679;28;20212;-63
2023/12/15 09:53:35;;;;;;;16.93;5.33;;;9.30;99.90;;;;;;5062459;28;20216;-63
2023/12/15 09:56:04;;;;;;;12.07;5.43;;;9.30;99.90;;;;;;5068540;28;20819;-62
2023/12/15 09:58:32;;;;;;;13.57;5.50;;;9.30;99.90;;;;;;5063839;28;20192;-63
2023/12/15 10:01:03;;;;;;;16.47;5.47;;;9.30;99.90;;;;;;5064174;28;20246;-63
2023/12/15 10:03:31;;;;;;;12.97;5.70;;;9.30;99.90;;;;;;5061367;28;20212;-63
2023/12/15 10:06:00;;;;;;;15.43;5.20;;;9.30;99.90;;;;;;5062392;28;20223;-63
2023/12/15 10:08:40;;;;;;;11.97;4.80;;;9.30;99.90;;;;;;5061756;28;20217;-63
2023/12/15 10:11:29;;;;;;;14.13;5.03;;;9.30;99.90;;;;;;5062383;28;20227;-63
2023/12/15 10:13:58;;;;;;;17.63;4.80;;;9.30;99.90;;;;;;5063647;28;20585;-61
2023/12/15 10:16:29;;;;;;;12.57;4.50;;;9.30;99.90;;;;;;5054261;28;20196;-64
2023/12/15 10:18:57;;;;;;;12.77;5.00;;;9.30;99.90;;;;;;5064262;28;20227;-56
2023/12/15 10:21:26;;;;;;;17.53;5.90;;;9.30;99.90;;;;;;5063833;28;20227;-56
2023/12/15 10:23:55;;;;;;;18.47;5.27;;;9.30;99.90;;;;;;5069840;28;20231;-55
2023/12/15 10:26:24;;;;;;;12.97;5.00;;;9.40;99.90;;;;;;5067631;28;20762;-55
2023/12/15 10:28:55;;;;;;;17.87;5.20;;;9.40;99.90;;;;;;5068556;28;20551;-57
2023/12/15 10:31:27;;;;;;;13.50;5.30;;;9.30;99.90;;;;;;5039845;28;20255;-57
2023/12/15 10:33:56;;;;;;;13.10;4.93;;;9.30;96.80;;;;;;5047388;28;20299;-56
2023/12/15 10:36:29;;;;;;;13.37;5.17;;;9.30;99.60;;;;;;5042572;28;20819;-55
2023/12/15 10:38:57;;;;;;;14.60;5.13;;;9.30;99.00;;;;;;5054459;28;20304;-56
2023/12/15 10:41:30;;;;;;;19.70;5.63;;;9.40;97.20;;;;;;5062389;28;20231;-56
2023/12/15 10:43:59;;;;;;;18.03;6.07;;;9.40;96.30;;;;;;5066325;28;20547;-56
2023/12/15 10:46:33;;;;;;;13.53;5.47;;;9.40;96.90;;;;;;5066136;28;20224;-55
2023/12/15 10:49:04;;;;;;;14.47;5.10;;;9.40;95.90;;;;;;5062280;28;20216;-57
2023/12/15 10:51:33;;;;;;;14.87;4.97;;;9.40;93.70;;;;;;5060137;28;20250;-56
2023/12/15 10:54:04;;;;;;;12.10;5.50;;;9.40;99.90;;;;;;5069473;28;20223;-57
2023/12/15 10:56:32;;;;;;;14.73;5.77;;;9.40;98.00;;;;;;5068867;28;20562;-56
2023/12/15 10:59:01;;;;;;;20.73;5.37;;;9.40;94.90;;;;;;5063386;28;20204;-57
2023/12/15 11:01:32;;;;;;;15.07;5.20;;;9.40;94.30;;;;;;5067005;28;20216;-55
2023/12/15 11:04:02;;;;;;;12.70;4.90;;;9.40;94.40;;;;;;5066028;28;20211;-57
2023/12/15 11:06:32;;;;;;;14.30;5.40;;;9.30;94.80;;;;;;5065968;28;20217;-57
2023/12/15 11:09:04;;;;;;;17.00;5.77;;;9.30;94.50;;;;;;5066961;28;20223;-55
2023/12/15 11:11:33;;;;;;;19.83;5.50;;;9.40;99.40;;;;;;5063759;28;20215;-56
2023/12/15 11:14:02;;;;;;;15.87;4.53;;;9.40;97.70;;;;;;5066174;28;20238;-56
2023/12/15 11:16:34;;;;;;;14.80;5.60;;;9.40;96.20;;;;;;5064026;28;20224;-56
2023/12/15 11:19:04;;;;;;;12.37;5.10;;;9.50;96.60;;;;;;5064994;28;20216;-56
2023/12/15 11:21:32;;;;;;;22.80;5.27;;;9.50;97.90;;;;;;5064769;28;20246;-56
2023/12/15 11:24:04;;;;;;;18.03;5.53;;;9.60;99.90;;;;;;5065881;28;20248;-57
2023/12/15 11:26:34;;;;;;;12.20;5.17;;;9.60;96.00;;;;;;5072185;28;20212;-56
2023/12/15 11:29:04;;;;;;;15.47;5.07;;;9.60;98.80;;;;;;5066257;28;20212;-56
2023/12/15 11:31:33;;;;;;;17.43;5.87;;;9.60;99.90;;;;;;5067452;28;20266;-56
2023/12/15 11:34:04;;;;;;;11.07;4.90;;;9.60;97.60;;;;;;5063226;28;20219;-57
2023/12/15 11:36:40;;;;;;;13.37;4.53;;;9.60;99.90;;;;;;5068853;28;20224;-56
2023/12/15 11:39:12;;;;;;;13.97;5.10;;;9.60;99.90;;;;;;5068731;28;20229;-55
2023/12/15 11:41:42;;;;;;;14.80;4.50;;;9.60;97.40;;;;;;5065899;28;20279;-56
2023/12/15 11:44:10;;;;;;;17.13;5.53;;;9.70;96.10;;;;;;5067095;28;20192;-56
2023/12/15 11:46:40;;;;;;;16.33;5.70;;;9.80;92.70;;;;;;5063534;28;20215;-56
2023/12/15 11:49:22;;;;;;;20.13;6.10;;;9.90;91.60;;;;;;5068433;28;20227;-56
2023/12/15 11:51:51;;;;;;;12.80;5.50;;;10.00;89.70;;;;;;5063357;28;20327;-57
2023/12/15 11:54:19;;;;;;;13.40;5.27;;;10.00;93.50;;;;;;5066368;28;20216;-57
2023/12/15 11:56:48;;;;;;;14.80;4.60;;;10.10;74.80;;;;;;5061608;28;20303;-56
2023/12/15 11:59:16;;;;;;;13.43;4.50;;;10.10;72.90;;;;;;5059580;28;20273;-55
2023/12/15 12:01:48;;;;;;;10.53;4.27;;;10.20;65.00;;;;;;5066606;28;20267;-56
2023/12/15 12:04:21;;;;;;;11.70;4.37;;;10.20;72.20;;;;;;5067311;28;20215;-55
2023/12/15 12:06:49;;;;;;;15.27;4.80;;;10.10;63.80;;;;;;5064227;28;20277;-56
2023/12/15 12:09:17;;;;;;;8.10;3.93;;;10.10;66.80;;;;;;5064658;28;20228;-56
2023/12/15 12:11:47;;;;;;;13.13;4.50;;;10.10;70.60;;;;;;5065116;28;20863;-56
2023/12/15 12:14:15;;;;;;;10.83;4.17;;;10.10;63.70;;;;;;5070894;28;20223;-56
2023/12/15 12:16:49;;;;;;;14.03;5.20;;;10.00;61.50;;;;;;5070612;28;20204;-57
2023/12/15 12:19:17;;;;;;;13.50;4.40;;;10.10;58.80;;;;;;5070090;28;20745;-55
2023/12/15 12:21:51;;;;;;;13.30;5.30;;;10.10;71.00;;;;;;5066264;28;20224;-55
2023/12/15 12:24:19;;;;;;;15.40;5.10;;;10.10;64.60;;;;;;5071537;28;20219;-56
2023/12/15 12:26:51;;;;;;;19.07;5.37;;;10.10;63.10;;;;;;5068181;28;20231;-56
2023/12/15 12:29:22;;;;;;;12.20;4.23;;;10.10;61.20;;;;;;5066758;28;20228;-57
2023/12/15 12:31:51;;;;;;;20.20;5.13;;;10.10;72.20;;;;;;5065580;28;20187;-57
2023/12/15 12:34:19;;;;;;;14.17;4.77;;;10.10;88.20;;;;;;5058901;28;20221;-57
2023/12/15 12:36:49;;;;;;;17.60;4.67;;;10.10;74.30;;;;;;5055222;28;20228;-55
2023/12/15 12:39:22;;;;;;;13.33;4.33;;;10.10;73.60;;;;;;5069943;28;21199;-57
2023/12/15 12:41:51;;;;;;;12.43;4.30;;;10.00;82.30;;;;;;5059541;28;20228;-56
2023/12/15 12:44:19;;;;;;;13.97;4.33;;;10.10;81.00;;;;;;5059109;28;20234;-57
2023/12/15 12:46:47;;;;;;;17.57;4.77;;;10.00;84.30;;;;;;5048149;28;20188;-57
2023/12/15 12:49:18;;;;;;;15.43;4.67;;;10.00;76.40;;;;;;5044778;28;20319;-56
2023/12/15 12:51:47;;;;;;;10.70;4.53;;;10.00;85.40;;;;;;5048041;28;20574;-54